Fowler, CA (93625)

3:15 AM PST on February 13, 2016 (GMT -0800)
Del Rey | | Change Station
CLOSE
Current Station
Personal Weather Station
Location: Del Rey, CA
Elevation: 335 ft
Nearby Weather Stations

Elev 335 ft 36.67 °N, 119.65 °W | Updated 8 minutes ago

Partly Cloudy
Partly Cloudy
49.2 °F
Feels Like 49 °F
N
2.0
Wind Variable Wind from SE
Gusts 3.0 mph

Today
High -- | Low -- °F
--% Chance of Precip.
Yesterday
High -- | Low -- °F
Precip. -- in
Pressure 30.19 in
Visibility 7.0 miles
Clouds Few 10000 ft
Scattered Clouds 20000 ft
Windchill 49 °F
Dew Point 48 °F
Humidity 94%
Rainfall 0.00 in
Snow Depth Not available.
6:49 AM 5:36 PM
Waxing Crescent, 29% visible
METAR KFAT 131053Z 00000KT 7SM FEW100 SCT200 09/07 A3019 RMK AO2 SLP223 T00890072
Pressure 30.19 in
Visibility 7.0 miles
Clouds Few 10000 ft
Scattered Clouds 20000 ft
Windchill 49 °F
Dew Point 48 °F
Humidity 94%
Rainfall 0.00 in
Snow Depth Not available.
6:49 AM 5:36 PM
Waxing Crescent, 29% visible
METAR KFAT 131053Z 00000KT 7SM FEW100 SCT200 09/07 A3019 RMK AO2 SLP223 T00890072

10-Day Weather Forecast

Almanac

Astronomy

Feb. 13, 2016 Rise Set
Actual Time
Civil Twilight
Nautical Twilight
Astronomical Twilight
Moon
Length of Visible Light
Length of Day
Tomorrow will be .
, % of the Moon is Illuminated

Today's Extremes

State Highs State Lows

Community

WunderPhotos

Upload Photos

1,892,541 photos uploaded!

WunderBlog® & News

Nearby

Air Quality

  Air Quality AQ Index Pollutant
Not available.

Snow Depth

Station Depth Elevation

Earthquake Activity

City Distance Mag. Time & Date
Minimum magnitude displayed is 2.5.

Coastal Water Temperatures

Place Temperature

Stations

Nearby Weather Stations

Station Location Temp. Windchill Dew Point Humidity Wind Precip. Elev Updated Type
                   

Watches & Warnings

There are currently no watches in effect.